createdAt,value
2022-12-11T00:00:55.792Z,-2.30
2022-12-11T00:06:17.969Z,-2.36
2022-12-11T00:11:21.619Z,-2.37
2022-12-11T00:16:27.043Z,-2.37
2022-12-11T00:21:30.096Z,-2.37
2022-12-11T00:26:32.529Z,-2.44
2022-12-11T00:31:35.084Z,-2.51
2022-12-11T00:36:38.399Z,-2.56
2022-12-11T00:41:40.861Z,-2.60
2022-12-11T00:46:43.346Z,-2.64
2022-12-11T00:51:45.826Z,-2.68
2022-12-11T00:56:48.322Z,-2.68
2022-12-11T01:01:50.798Z,-2.71
2022-12-11T01:06:53.305Z,-2.77
2022-12-11T01:11:55.846Z,-2.85
2022-12-11T01:16:58.426Z,-2.89
2022-12-11T01:22:01.076Z,-2.91
2022-12-11T01:27:04.526Z,-2.97
2022-12-11T01:32:07.006Z,-3.00
2022-12-11T01:37:09.504Z,-2.98
2022-12-11T01:42:18.485Z,-2.96
2022-12-11T01:47:20.948Z,-2.93
2022-12-11T01:52:23.504Z,-2.92
2022-12-11T01:57:26.034Z,-2.93
2022-12-11T02:02:30.856Z,-2.99
2022-12-11T02:07:40.444Z,-3.07
2022-12-11T02:12:58.391Z,-3.09
2022-12-11T02:18:24.017Z,-3.12
2022-12-11T02:23:43.988Z,-3.15
2022-12-11T02:28:55.718Z,-3.19
2022-12-11T02:34:03.219Z,-3.21
2022-12-11T02:39:09.106Z,-3.26
2022-12-11T02:44:15.900Z,-3.28
2022-12-11T02:49:20.604Z,-3.27
2022-12-11T02:54:29.641Z,-3.24
2022-12-11T02:59:38.049Z,-3.26
2022-12-11T03:04:41.186Z,-3.33
2022-12-11T03:09:46.353Z,-3.34
2022-12-11T03:14:49.676Z,-3.32
2022-12-11T03:19:56.223Z,-3.36
2022-12-11T03:24:59.664Z,-3.41
2022-12-11T03:30:06.457Z,-3.50
2022-12-11T03:35:16.651Z,-3.61
2022-12-11T03:40:21.060Z,-3.71
2022-12-11T03:45:25.816Z,-3.78
2022-12-11T03:50:31.706Z,-3.82
2022-12-11T03:55:37.642Z,-3.88
2022-12-11T04:00:40.188Z,-3.90
2022-12-11T04:05:47.069Z,-3.87
2022-12-11T04:10:53.634Z,-3.84
2022-12-11T04:15:56.154Z,-3.90
2022-12-11T04:21:01.583Z,-3.99
2022-12-11T04:26:07.545Z,-4.05
2022-12-11T04:31:15.558Z,-4.06
2022-12-11T04:36:18.204Z,-4.10
2022-12-11T04:41:20.675Z,-4.11
2022-12-11T04:46:24.507Z,-4.08
2022-12-11T04:51:28.710Z,-4.00
2022-12-11T04:56:31.321Z,-3.94
2022-12-11T05:01:33.866Z,-3.94
2022-12-11T05:06:36.408Z,-3.96
2022-12-11T05:11:39.272Z,-3.98
2022-12-11T05:16:41.726Z,-4.00
2022-12-11T05:21:44.192Z,-4.03
2022-12-11T05:26:46.714Z,-4.01
2022-12-11T05:31:49.183Z,-4.01
2022-12-11T05:36:51.663Z,-4.05
2022-12-11T05:41:54.133Z,-4.05
2022-12-11T05:46:56.714Z,-4.05
2022-12-11T05:51:59.252Z,-4.09
2022-12-11T05:57:01.736Z,-4.12
2022-12-11T06:02:04.324Z,-4.08
2022-12-11T06:07:06.901Z,-4.04
2022-12-11T06:12:09.365Z,-4.03
2022-12-11T06:17:11.819Z,-4.01
2022-12-11T06:22:14.278Z,-4.01
2022-12-11T06:27:16.847Z,-3.97
2022-12-11T06:32:19.292Z,-3.93
2022-12-11T06:37:21.774Z,-3.90
2022-12-11T06:42:24.225Z,-3.87
2022-12-11T06:47:27.542Z,-3.88
2022-12-11T06:52:30.011Z,-3.95
2022-12-11T06:57:35.714Z,-4.00
2022-12-11T07:02:38.514Z,-4.02
2022-12-11T07:07:41.131Z,-3.99
2022-12-11T07:12:43.574Z,-3.98
2022-12-11T07:17:46.019Z,-3.99
2022-12-11T07:22:48.502Z,-3.98
2022-12-11T07:27:51.047Z,-3.96
2022-12-11T07:32:53.578Z,-3.91
2022-12-11T07:37:56.029Z,-3.87
2022-12-11T07:42:58.487Z,-3.84
2022-12-11T07:48:00.994Z,-3.78
2022-12-11T07:53:03.539Z,-3.78
2022-12-11T07:58:06.245Z,-3.81
2022-12-11T08:03:08.930Z,-3.86
2022-12-11T08:08:11.394Z,-3.86
2022-12-11T08:13:16.114Z,-3.79
2022-12-11T08:18:18.618Z,-3.77
2022-12-11T08:23:21.066Z,-3.76
2022-12-11T08:28:23.581Z,-3.76
2022-12-11T08:33:26.699Z,-3.74
2022-12-11T08:38:29.545Z,-3.72
2022-12-11T08:43:33.805Z,-3.71
2022-12-11T08:48:38.017Z,-3.62
2022-12-11T08:53:40.769Z,-3.58
2022-12-11T08:58:46.509Z,-3.58
2022-12-11T09:03:50.262Z,-3.54
2022-12-11T09:08:54.054Z,-3.50
2022-12-11T09:13:57.578Z,-3.53
2022-12-11T09:19:01.325Z,-3.57
2022-12-11T09:24:06.356Z,-3.57
2022-12-11T09:29:13.189Z,-3.62
2022-12-11T09:34:15.710Z,-3.69
2022-12-11T09:39:18.633Z,-3.76
2022-12-11T09:44:26.039Z,-3.78
2022-12-11T09:49:33.403Z,-3.83
2022-12-11T09:54:36.696Z,-3.83
2022-12-11T09:59:44.240Z,-3.84
2022-12-11T10:04:50.637Z,-3.83
2022-12-11T10:09:59.006Z,-3.84
2022-12-11T10:15:16.621Z,-3.73
2022-12-11T10:20:26.837Z,-3.63
2022-12-11T10:25:34.140Z,-3.64
2022-12-11T10:30:39.800Z,-3.67
2022-12-11T10:35:49.663Z,-3.72
2022-12-11T10:40:58.935Z,-3.76
2022-12-11T10:46:01.600Z,-3.79
2022-12-11T10:51:07.068Z,-3.83
2022-12-11T10:56:09.990Z,-3.89
2022-12-11T11:01:16.134Z,-3.95
2022-12-11T11:06:21.778Z,-3.98
2022-12-11T11:11:33.944Z,-4.02
2022-12-11T11:16:39.135Z,-4.03
2022-12-11T11:21:49.956Z,-4.01
2022-12-11T11:32:21.808Z,-4.01
2022-12-11T11:37:33.713Z,-4.08
2022-12-11T11:42:49.293Z,-4.13
2022-12-11T11:48:07.744Z,-4.20
2022-12-11T11:53:25.880Z,-4.18
2022-12-11T11:58:39.126Z,-4.14
2022-12-11T12:03:41.973Z,-4.11
2022-12-11T12:08:51.823Z,-4.05
2022-12-11T12:14:51.026Z,-3.99
2022-12-11T12:19:56.391Z,-4.00
2022-12-11T12:25:10.627Z,-3.98
2022-12-11T12:30:22.063Z,-3.92
2022-12-11T12:35:29.619Z,-3.94
2022-12-11T12:40:39.632Z,-3.97
2022-12-11T12:45:53.911Z,-3.97
2022-12-11T12:50:57.204Z,-4.00
2022-12-11T12:56:02.547Z,-4.05
2022-12-11T13:01:24.815Z,-4.13
2022-12-11T13:06:31.015Z,-4.21
2022-12-11T13:11:34.662Z,-4.23
2022-12-11T13:16:39.976Z,-4.26
2022-12-11T13:21:42.832Z,-4.30
2022-12-11T13:26:45.514Z,-4.30
2022-12-11T13:31:58.680Z,-4.32
2022-12-11T13:37:03.872Z,-4.32
2022-12-11T13:42:20.259Z,-4.32
2022-12-11T13:47:23.927Z,-4.33
2022-12-11T13:52:27.615Z,-4.35
2022-12-11T13:57:30.258Z,-4.30
2022-12-11T14:02:38.760Z,-4.28
2022-12-11T14:07:46.645Z,-4.29
2022-12-11T14:12:57.048Z,-4.25
2022-12-11T14:18:00.646Z,-4.28
2022-12-11T14:23:07.229Z,-4.27
2022-12-11T14:28:16.674Z,-4.23
2022-12-11T14:33:23.073Z,-4.23
2022-12-11T14:38:33.374Z,-4.21
2022-12-11T14:43:41.156Z,-4.15
2022-12-11T14:48:57.507Z,-4.15
2022-12-11T14:54:04.463Z,-4.16
2022-12-11T14:59:28.320Z,-4.18
2022-12-11T15:04:34.370Z,-4.19
2022-12-11T15:09:40.501Z,-4.20
2022-12-11T15:14:47.921Z,-4.16
2022-12-11T15:19:55.312Z,-4.16
2022-12-11T15:24:58.075Z,-4.17
2022-12-11T15:30:00.656Z,-4.16
2022-12-11T15:35:24.094Z,-4.12
2022-12-11T15:40:27.753Z,-4.14
2022-12-11T15:45:30.313Z,-4.16
2022-12-11T15:50:32.797Z,-4.13
2022-12-11T15:55:37.683Z,-4.11
2022-12-11T16:00:40.153Z,-4.16
2022-12-11T16:05:42.753Z,-4.23
2022-12-11T16:10:47.037Z,-4.29
2022-12-11T16:15:51.146Z,-4.30
2022-12-11T16:20:53.674Z,-4.30
2022-12-11T16:25:56.125Z,-4.28
2022-12-11T16:30:58.662Z,-4.22
2022-12-11T16:36:01.145Z,-4.22
2022-12-11T16:41:03.825Z,-4.21
2022-12-11T16:46:06.688Z,-4.18
2022-12-11T16:51:09.226Z,-4.15
2022-12-11T16:56:12.249Z,-4.12
2022-12-11T17:01:15.658Z,-4.05
2022-12-11T17:06:18.816Z,-4.03
2022-12-11T17:11:22.940Z,-4.11
2022-12-11T17:16:28.987Z,-4.06
2022-12-11T17:21:31.466Z,-4.01
2022-12-11T17:26:34.874Z,-4.00
2022-12-11T17:31:37.749Z,-3.95
2022-12-11T17:36:40.279Z,-3.89
2022-12-11T17:41:42.783Z,-3.91
2022-12-11T17:46:45.294Z,-3.93
2022-12-11T17:51:47.958Z,-3.95
2022-12-11T17:56:50.947Z,-3.94
2022-12-11T18:01:53.433Z,-3.96
2022-12-11T18:06:56.385Z,-3.97
2022-12-11T18:11:58.941Z,-3.98
2022-12-11T18:17:01.460Z,-4.00
2022-12-11T18:22:03.938Z,-3.99
2022-12-11T18:27:10.144Z,-3.97
2022-12-11T18:32:12.644Z,-3.97
2022-12-11T18:37:15.231Z,-3.95
2022-12-11T18:42:32.864Z,-3.97
2022-12-11T18:47:37.239Z,-3.99
2022-12-11T18:52:39.854Z,-3.96
2022-12-11T18:57:42.306Z,-3.94
2022-12-11T19:02:45.217Z,-3.95
2022-12-11T19:07:47.870Z,-3.94
2022-12-11T19:12:50.374Z,-3.94
2022-12-11T19:17:52.809Z,-3.97
2022-12-11T19:22:55.293Z,-3.95
2022-12-11T19:27:58.155Z,-3.93
2022-12-11T19:33:00.658Z,-3.91
2022-12-11T19:38:03.138Z,-3.90
2022-12-11T19:43:05.716Z,-3.88
2022-12-11T19:48:08.230Z,-3.83
2022-12-11T19:53:10.660Z,-3.81
2022-12-11T19:58:13.531Z,-3.81
2022-12-11T20:03:16.080Z,-3.79
2022-12-11T20:08:43.533Z,-3.77
2022-12-11T20:13:41.582Z,-3.71
2022-12-11T20:18:45.418Z,-3.68
2022-12-11T20:23:48.544Z,-3.66
2022-12-11T20:28:52.915Z,-3.63
2022-12-11T20:33:56.122Z,-3.59
2022-12-11T20:38:59.067Z,-3.52
2022-12-11T20:44:01.710Z,-3.49
2022-12-11T20:49:04.385Z,-3.43
2022-12-11T20:54:07.208Z,-3.38
2022-12-11T20:59:10.569Z,-3.32
2022-12-11T21:04:13.015Z,-3.25
2022-12-11T21:09:18.599Z,-3.19
2022-12-11T21:14:21.136Z,-3.12
2022-12-11T21:19:23.745Z,-3.05
2022-12-11T21:24:29.672Z,-2.97
2022-12-11T21:29:32.230Z,-2.87
2022-12-11T21:34:34.797Z,-2.78
2022-12-11T21:39:39.344Z,-2.68
2022-12-11T21:45:51.816Z,-2.57
2022-12-11T21:50:05.040Z,-2.50
2022-12-11T21:55:07.975Z,-2.44
2022-12-11T22:00:11.088Z,-2.38
2022-12-11T22:05:13.966Z,-2.30
2022-12-11T22:10:16.842Z,-2.23
2022-12-11T22:15:19.483Z,-2.22
2022-12-11T22:20:21.988Z,-2.16
2022-12-11T22:25:24.717Z,-2.09
2022-12-11T22:30:27.243Z,-1.99
2022-12-11T22:35:30.084Z,-1.94
2022-12-11T22:40:33.734Z,-1.88
2022-12-11T22:45:39.552Z,-1.82
2022-12-11T22:50:42.682Z,-1.75
2022-12-11T22:55:45.130Z,-1.71
2022-12-11T23:00:47.571Z,-1.67
2022-12-11T23:05:50.032Z,-1.60
2022-12-11T23:10:52.493Z,-1.56
2022-12-11T23:15:54.994Z,-1.51
2022-12-11T23:20:57.468Z,-1.47
2022-12-11T23:26:00.395Z,-1.42
2022-12-11T23:31:03.090Z,-1.36
2022-12-11T23:36:06.042Z,-1.32
2022-12-11T23:41:11.429Z,-1.28
2022-12-11T23:46:17.320Z,-1.23
2022-12-11T23:51:21.640Z,-1.18
2022-12-11T23:56:26.981Z,-1.14
